createdAt,value
2019-02-06T00:01:56.198Z,27.80
2019-02-06T00:04:32.328Z,26.35
2019-02-06T00:07:03.056Z,25.97
2019-02-06T00:09:31.763Z,28.23
2019-02-06T00:12:00.425Z,27.10
2019-02-06T00:14:29.231Z,28.87
2019-02-06T00:16:58.159Z,28.45
2019-02-06T00:19:27.104Z,28.57
2019-02-06T00:21:55.916Z,30.45
2019-02-06T00:24:24.623Z,31.65
2019-02-06T00:26:53.421Z,28.25
2019-02-06T00:29:22.113Z,32.65
2019-02-06T00:31:50.881Z,32.05
2019-02-06T00:34:19.539Z,30.65
2019-02-06T00:36:48.194Z,33.55
2019-02-06T00:39:16.838Z,31.60
2019-02-06T00:41:45.621Z,33.88
2019-02-06T00:44:16.640Z,32.15
2019-02-06T00:46:45.605Z,32.73
2019-02-06T00:49:14.380Z,32.73
2019-02-06T00:51:43.156Z,32.88
2019-02-06T00:54:11.828Z,32.08
2019-02-06T00:56:40.529Z,31.07
2019-02-06T00:59:09.304Z,31.90
2019-02-06T01:01:37.995Z,31.65
2019-02-06T01:04:07.212Z,30.68
2019-02-06T01:06:35.842Z,31.68
2019-02-06T01:09:08.375Z,33.05
2019-02-06T01:11:37.075Z,32.55
2019-02-06T01:14:05.829Z,32.30
2019-02-06T01:16:34.511Z,30.97
2019-02-06T01:19:05.409Z,31.12
2019-02-06T01:21:34.080Z,31.90
2019-02-06T01:24:02.809Z,33.60
2019-02-06T01:26:31.713Z,34.15
2019-02-06T01:29:00.454Z,33.45
2019-02-06T01:31:30.173Z,34.70
2019-02-06T01:33:58.863Z,33.60
2019-02-06T01:36:27.690Z,33.58
2019-02-06T01:38:57.372Z,34.40
2019-02-06T01:41:26.161Z,32.05
2019-02-06T01:43:54.872Z,33.42
2019-02-06T01:46:23.594Z,33.73
2019-02-06T01:48:52.248Z,34.58
2019-02-06T01:51:20.951Z,34.13
2019-02-06T01:53:49.640Z,31.87
2019-02-06T01:56:18.283Z,34.88
2019-02-06T01:58:47.015Z,34.33
2019-02-06T02:01:15.678Z,34.33
2019-02-06T02:03:44.771Z,35.58
2019-02-06T02:06:13.484Z,34.27
2019-02-06T02:08:48.281Z,34.55
2019-02-06T02:11:16.984Z,35.52
2019-02-06T02:13:45.656Z,34.08
2019-02-06T02:16:14.324Z,35.25
2019-02-06T02:18:43.033Z,34.98
2019-02-06T02:21:11.711Z,33.95
2019-02-06T02:23:41.147Z,35.90
2019-02-06T02:26:09.779Z,36.77
2019-02-06T02:28:40.773Z,34.30
2019-02-06T02:31:09.740Z,35.80
2019-02-06T02:33:38.627Z,35.30
2019-02-06T02:36:15.818Z,34.30
2019-02-06T02:38:37.813Z,34.55
2019-02-06T02:41:06.478Z,35.15
2019-02-06T02:43:35.174Z,32.08
2019-02-06T02:46:03.904Z,32.98
2019-02-06T02:48:32.540Z,31.37
2019-02-06T02:51:01.180Z,32.42
2019-02-06T02:53:30.213Z,32.00
2019-02-06T02:55:58.849Z,33.90
2019-02-06T02:58:27.595Z,32.58
2019-02-06T03:01:15.306Z,34.48
2019-02-06T03:03:59.037Z,31.55
2019-02-06T03:06:28.717Z,32.15
2019-02-06T03:08:57.449Z,32.17
2019-02-06T03:11:26.130Z,30.80
2019-02-06T03:13:54.945Z,31.50
2019-02-06T03:16:23.728Z,32.10
2019-02-06T03:18:52.533Z,31.20
2019-02-06T03:21:21.180Z,30.30
2019-02-06T03:23:50.165Z,32.00
2019-02-06T03:26:18.852Z,31.85
2019-02-06T03:28:47.482Z,32.70
2019-02-06T03:31:16.167Z,31.42
2019-02-06T03:33:44.911Z,30.52
2019-02-06T03:36:14.648Z,32.25
2019-02-06T03:38:43.354Z,30.52
2019-02-06T03:41:11.992Z,31.10
2019-02-06T03:43:40.730Z,30.52
2019-02-06T03:46:10.410Z,31.25
2019-02-06T03:48:39.125Z,30.43
2019-02-06T03:51:07.785Z,29.37
2019-02-06T03:53:36.476Z,31.97
2019-02-06T03:56:05.077Z,30.45
2019-02-06T03:58:36.045Z,31.97
2019-02-06T04:01:04.759Z,30.30
2019-02-06T04:03:33.426Z,31.00
2019-02-06T04:06:04.502Z,29.15
2019-02-06T04:08:33.189Z,31.57
2019-02-06T04:11:01.885Z,30.10
2019-02-06T04:13:30.605Z,27.65
2019-02-06T04:16:00.586Z,30.27
2019-02-06T04:18:29.205Z,28.92
2019-02-06T04:20:58.200Z,28.45
2019-02-06T04:23:26.910Z,28.10
2019-02-06T04:25:55.562Z,28.77
2019-02-06T04:28:24.204Z,26.48
2019-02-06T04:30:52.823Z,29.18
2019-02-06T04:33:21.429Z,27.02
2019-02-06T04:35:50.227Z,27.30
2019-02-06T04:38:18.871Z,29.63
2019-02-06T04:40:47.573Z,28.85
2019-02-06T04:43:16.226Z,28.20
2019-02-06T04:45:44.875Z,28.27
2019-02-06T04:48:13.516Z,26.37
2019-02-06T04:50:42.199Z,26.40
2019-02-06T04:53:11.121Z,23.42
2019-02-06T04:55:39.843Z,27.52
2019-02-06T04:58:08.473Z,26.70
2019-02-06T05:00:37.186Z,26.55
2019-02-06T05:03:05.853Z,27.27
2019-02-06T05:05:34.517Z,26.60
2019-02-06T05:08:03.153Z,28.23
2019-02-06T05:10:31.829Z,25.65
2019-02-06T05:13:00.440Z,24.70
2019-02-06T05:15:29.063Z,24.10
2019-02-06T05:17:57.791Z,23.98
2019-02-06T05:20:36.403Z,24.98
2019-02-06T05:23:05.512Z,25.08
2019-02-06T05:25:34.195Z,23.22
2019-02-06T05:28:03.055Z,25.15
2019-02-06T05:30:31.751Z,24.55
2019-02-06T05:33:00.431Z,24.63
2019-02-06T05:35:29.104Z,22.50
2019-02-06T05:37:58.219Z,22.55
2019-02-06T05:40:26.917Z,22.37
2019-02-06T05:42:55.594Z,23.35
2019-02-06T05:45:24.259Z,22.77
2019-02-06T05:47:52.973Z,22.90
2019-02-06T05:50:21.641Z,21.97
2019-02-06T05:52:50.317Z,19.90
2019-02-06T05:55:19.122Z,21.27
2019-02-06T05:57:48.120Z,21.73
2019-02-06T06:00:23.343Z,21.52
2019-02-06T06:02:52.069Z,18.75
2019-02-06T06:05:20.732Z,18.80
2019-02-06T06:07:49.405Z,20.52
2019-02-06T06:10:18.053Z,20.08
2019-02-06T06:12:46.968Z,20.30
2019-02-06T06:15:16.185Z,17.17
2019-02-06T06:17:44.834Z,18.65
2019-02-06T06:20:14.432Z,19.12
2019-02-06T06:22:43.119Z,18.67
2019-02-06T06:25:12.444Z,20.23
2019-02-06T06:27:41.099Z,19.30
2019-02-06T06:30:11.886Z,18.70
2019-02-06T06:32:40.551Z,18.70
2019-02-06T06:35:09.879Z,19.20
2019-02-06T06:37:41.390Z,19.32
2019-02-06T06:40:11.656Z,19.17
2019-02-06T06:42:40.271Z,20.75
2019-02-06T06:45:10.611Z,20.23
2019-02-06T06:47:39.250Z,20.48
2019-02-06T06:50:09.876Z,21.00
2019-02-06T06:52:38.547Z,19.50
2019-02-06T06:55:07.597Z,20.10
2019-02-06T06:57:36.257Z,20.52
2019-02-06T07:00:06.183Z,22.15
2019-02-06T07:02:34.780Z,20.12
2019-02-06T07:05:05.591Z,21.50
2019-02-06T07:07:33.892Z,21.12
2019-02-06T07:10:03.389Z,22.75
2019-02-06T07:12:32.113Z,19.90
2019-02-06T07:15:01.098Z,22.52
2019-02-06T07:17:29.752Z,21.65
2019-02-06T07:19:58.370Z,23.00
2019-02-06T07:22:27.139Z,21.93
2019-02-06T07:24:58.061Z,21.70
2019-02-06T07:27:32.165Z,20.97
2019-02-06T07:30:01.733Z,23.52
2019-02-06T07:32:37.487Z,22.93
2019-02-06T07:35:17.804Z,21.93
2019-02-06T07:37:50.790Z,21.90
2019-02-06T07:40:21.156Z,22.82
2019-02-06T07:42:50.517Z,21.55
2019-02-06T07:45:19.188Z,21.23
2019-02-06T07:47:47.759Z,23.00
2019-02-06T07:50:21.237Z,21.68
2019-02-06T07:52:49.938Z,21.10
2019-02-06T07:55:18.838Z,21.07
2019-02-06T07:57:47.626Z,20.12
2019-02-06T08:00:16.345Z,21.45
2019-02-06T08:02:45.067Z,21.30
2019-02-06T08:05:17.211Z,20.77
2019-02-06T08:07:46.298Z,22.10
2019-02-06T08:10:27.822Z,22.95
2019-02-06T08:12:56.458Z,21.93
2019-02-06T08:15:25.540Z,21.00
2019-02-06T08:17:55.265Z,21.30
2019-02-06T08:20:24.165Z,20.40
2019-02-06T08:22:56.249Z,20.35
2019-02-06T08:25:24.954Z,21.07
2019-02-06T08:28:01.052Z,20.52
2019-02-06T08:30:35.344Z,21.85
2019-02-06T08:33:05.300Z,20.92
2019-02-06T08:35:34.174Z,19.57
2019-02-06T08:38:02.948Z,20.80
2019-02-06T08:40:31.608Z,20.00
2019-02-06T08:43:00.437Z,20.80
2019-02-06T08:45:29.054Z,21.80
2019-02-06T08:47:57.811Z,22.30
2019-02-06T08:50:26.862Z,22.80
2019-02-06T08:52:56.889Z,20.23
2019-02-06T08:55:27.298Z,20.60
2019-02-06T08:57:56.051Z,20.92
2019-02-06T09:00:35.576Z,20.95
2019-02-06T09:03:04.408Z,21.15
2019-02-06T09:05:33.142Z,21.35
2019-02-06T09:08:01.832Z,21.73
2019-02-06T09:10:31.020Z,21.50
2019-02-06T09:12:59.799Z,21.10
2019-02-06T09:15:28.486Z,20.92
2019-02-06T09:17:57.169Z,21.30
2019-02-06T09:20:26.212Z,20.48
2019-02-06T09:22:54.888Z,21.70
2019-02-06T09:25:24.124Z,20.60
2019-02-06T09:27:54.743Z,20.25
2019-02-06T09:30:25.291Z,20.23
2019-02-06T09:32:55.806Z,19.67
2019-02-06T09:35:24.857Z,21.27
2019-02-06T09:37:53.989Z,20.23
2019-02-06T09:40:24.508Z,22.20
2019-02-06T09:42:54.017Z,19.60
2019-02-06T09:45:23.025Z,18.32
2019-02-06T09:47:52.532Z,17.85
2019-02-06T09:50:32.918Z,18.57
2019-02-06T09:53:01.555Z,18.05
2019-02-06T09:55:34.143Z,18.85
2019-02-06T09:58:02.848Z,18.67
2019-02-06T10:00:33.415Z,18.73
2019-02-06T10:03:02.344Z,18.45
2019-02-06T10:05:31.096Z,18.00
2019-02-06T10:07:59.775Z,17.50
2019-02-06T10:10:28.525Z,17.95
2019-02-06T10:12:57.214Z,19.12
2019-02-06T10:15:27.405Z,18.17
2019-02-06T10:17:58.974Z,18.27
2019-02-06T10:20:45.359Z,19.17
2019-02-06T10:23:14.146Z,17.85
2019-02-06T10:25:42.885Z,17.10
2019-02-06T10:28:11.745Z,17.48
2019-02-06T10:30:43.339Z,17.23
2019-02-06T10:33:12.917Z,18.05
2019-02-06T10:35:41.748Z,17.30
2019-02-06T10:38:10.833Z,17.65
2019-02-06T10:40:39.628Z,18.42
2019-02-06T10:43:11.395Z,18.10
2019-02-06T10:45:40.442Z,17.95
2019-02-06T10:48:09.430Z,18.05
2019-02-06T10:50:43.820Z,17.67
2019-02-06T10:53:12.646Z,17.62
2019-02-06T10:55:42.321Z,17.90
2019-02-06T10:58:17.062Z,19.07
2019-02-06T11:00:51.440Z,18.35
2019-02-06T11:03:20.189Z,18.32
2019-02-06T11:05:48.979Z,16.67
2019-02-06T11:08:17.755Z,18.17
2019-02-06T11:10:46.499Z,18.35
2019-02-06T11:13:15.594Z,18.42
2019-02-06T11:15:44.293Z,18.82
2019-02-06T11:18:13.024Z,19.40
2019-02-06T11:20:43.881Z,18.87
2019-02-06T11:23:13.397Z,17.82
2019-02-06T11:25:42.348Z,18.32
2019-02-06T11:28:11.293Z,20.30
2019-02-06T11:30:40.387Z,18.00
2019-02-06T11:33:09.095Z,18.48
2019-02-06T11:35:37.759Z,18.00
2019-02-06T11:38:07.112Z,17.35
2019-02-06T11:40:36.123Z,17.77
2019-02-06T11:43:05.174Z,19.15
2019-02-06T11:45:38.633Z,17.77
2019-02-06T11:48:08.520Z,18.17
2019-02-06T11:50:42.071Z,18.45
2019-02-06T11:53:12.908Z,16.90
2019-02-06T11:55:41.594Z,18.30
2019-02-06T11:58:11.991Z,18.12
2019-02-06T12:00:48.279Z,17.48
2019-02-06T12:03:15.957Z,17.45
2019-02-06T12:05:44.574Z,18.40
2019-02-06T12:08:13.278Z,18.37
2019-02-06T12:10:41.883Z,17.02
2019-02-06T12:13:10.479Z,18.12
2019-02-06T12:15:39.037Z,17.60
2019-02-06T12:18:07.650Z,18.52
2019-02-06T12:20:36.285Z,18.67
2019-02-06T12:23:05.073Z,18.00
2019-02-06T12:25:34.566Z,18.48
2019-02-06T12:28:05.220Z,17.17
2019-02-06T12:30:33.980Z,17.07
2019-02-06T12:33:02.623Z,18.10
2019-02-06T12:35:31.328Z,17.05
2019-02-06T12:37:59.991Z,17.30
2019-02-06T12:40:28.612Z,18.70
2019-02-06T12:42:57.260Z,17.50
2019-02-06T12:45:26.001Z,17.32
2019-02-06T12:47:54.924Z,18.20
2019-02-06T12:50:23.597Z,17.95
2019-02-06T12:52:52.178Z,18.55
2019-02-06T12:55:23.429Z,18.07
2019-02-06T12:57:52.060Z,16.90
2019-02-06T13:00:27.979Z,17.98
2019-02-06T13:02:59.873Z,17.30
2019-02-06T13:05:27.150Z,17.37
2019-02-06T13:07:58.087Z,17.17
2019-02-06T13:10:33.820Z,18.25
2019-02-06T13:12:57.057Z,17.50
2019-02-06T13:15:25.619Z,18.32
2019-02-06T13:17:54.550Z,18.00
2019-02-06T13:20:25.002Z,17.30
2019-02-06T13:22:53.640Z,17.55
2019-02-06T13:25:22.272Z,16.97
2019-02-06T13:27:50.835Z,16.97
2019-02-06T13:30:24.601Z,16.97
2019-02-06T13:32:53.244Z,18.15
2019-02-06T13:35:21.924Z,16.82
2019-02-06T13:37:50.516Z,16.60
2019-02-06T13:40:20.330Z,16.40
2019-02-06T13:42:48.902Z,18.20
2019-02-06T13:45:20.170Z,17.98
2019-02-06T13:47:49.009Z,17.15
2019-02-06T13:50:22.220Z,17.02
2019-02-06T13:52:47.975Z,17.20
2019-02-06T13:55:16.819Z,16.87
2019-02-06T13:57:45.446Z,18.10
2019-02-06T14:00:16.283Z,17.67
2019-02-06T14:02:45.187Z,17.20
2019-02-06T14:05:14.668Z,16.30
2019-02-06T14:07:43.938Z,19.02
2019-02-06T14:10:13.827Z,16.82
2019-02-06T14:12:42.411Z,17.70
2019-02-06T14:15:12.749Z,17.67
2019-02-06T14:17:42.615Z,16.90
2019-02-06T14:20:14.040Z,16.95
2019-02-06T14:22:43.339Z,16.85
2019-02-06T14:25:27.396Z,17.32
2019-02-06T14:31:06.712Z,17.17
2019-02-06T14:34:06.542Z,17.32
2019-02-06T14:36:52.584Z,19.07
2019-02-06T14:39:49.899Z,17.90
2019-02-06T14:42:51.692Z,17.52
2019-02-06T14:45:50.844Z,18.70
2019-02-06T14:48:59.319Z,17.70
2019-02-06T14:51:48.154Z,18.17
2019-02-06T14:54:27.457Z,17.20
2019-02-06T14:57:33.999Z,17.55
2019-02-06T15:00:17.305Z,18.37
2019-02-06T15:03:18.145Z,17.23
2019-02-06T15:06:17.437Z,19.77
2019-02-06T15:09:15.438Z,16.20
2019-02-06T15:12:00.856Z,18.67
2019-02-06T15:14:52.464Z,17.42
2019-02-06T15:17:45.752Z,17.32
2019-02-06T15:20:49.786Z,18.10
2019-02-06T15:23:36.409Z,17.85
2019-02-06T15:26:39.563Z,18.12
2019-02-06T15:29:30.293Z,18.00
2019-02-06T15:32:32.354Z,17.48
2019-02-06T15:35:36.174Z,18.07
2019-02-06T15:38:51.602Z,20.05
2019-02-06T15:41:34.417Z,16.62
2019-02-06T15:44:26.181Z,18.40
2019-02-06T15:47:27.082Z,22.15
2019-02-06T15:50:34.784Z,16.30
2019-02-06T15:53:41.032Z,17.10
2019-02-06T15:56:55.790Z,18.62
2019-02-06T15:59:46.415Z,16.70
2019-02-06T16:02:34.567Z,17.15
2019-02-06T16:05:48.759Z,17.73
2019-02-06T16:08:41.200Z,17.32
2019-02-06T16:11:47.042Z,18.20
2019-02-06T16:14:52.407Z,17.48
2019-02-06T16:17:48.044Z,15.32
2019-02-06T16:20:45.039Z,17.30
2019-02-06T16:23:40.636Z,18.02
2019-02-06T16:26:50.715Z,16.73
2019-02-06T16:30:00.928Z,18.82
2019-02-06T16:32:52.584Z,17.50
2019-02-06T16:35:46.566Z,16.20
2019-02-06T16:38:52.484Z,18.05
2019-02-06T16:42:05.192Z,16.23
2019-02-06T16:44:54.856Z,18.77
2019-02-06T16:47:46.030Z,17.17
2019-02-06T16:50:42.138Z,16.65
2019-02-06T16:53:41.039Z,17.30
2019-02-06T16:56:46.427Z,16.25
